Terminal Aerodrome Forecast
Issued by NWS Jackson, MS

Home | Current Version | Previous Version | Text Only | Print | Product List | Glossary On
Versions: 1 2 3 4 5 6 7 8 9 10 11 12 13
997
FTUS44 KJAN 290538
TAFHBG
TAF
KHBG 290538Z 2906/3006 13004KT P6SM VCSH SCT015 BKN060
     FM291000 14006KT 4SM SHRA VCTS SCT015 BKN025CB
     FM292300 16005KT P6SM BKN025=

USA.gov is the U.S. government's official web portal to all federal, state and local government web resources and services.